createdAt,value
2023-04-05T00:02:03.696Z,160.25
2023-04-05T00:04:35.713Z,133.82
2023-04-05T00:07:09.156Z,132.18
2023-04-05T00:09:38.884Z,170.82
2023-04-05T00:12:07.962Z,153.52
2023-04-05T00:14:36.675Z,161.25
2023-04-05T00:17:05.739Z,150.23
2023-04-05T00:19:36.145Z,168.52
2023-04-05T00:22:05.878Z,197.95
2023-04-05T00:24:35.067Z,191.57
2023-04-05T00:27:03.869Z,151.07
2023-04-05T00:29:32.943Z,155.60
2023-04-05T00:32:01.817Z,163.23
2023-04-05T00:34:30.895Z,131.05
2023-04-05T00:37:00.206Z,168.55
2023-04-05T00:39:29.420Z,148.73
2023-04-05T00:41:58.296Z,129.38
2023-04-05T00:44:27.777Z,121.70
2023-04-05T00:46:57.318Z,117.53
2023-04-05T00:49:26.413Z,112.22
2023-04-05T00:51:55.386Z,97.40
2023-04-05T00:54:26.621Z,98.53
2023-04-05T00:56:57.573Z,103.95
2023-04-05T00:59:32.450Z,131.75
2023-04-05T01:02:18.062Z,115.20
2023-04-05T01:04:57.263Z,86.93
2023-04-05T01:07:35.354Z,78.97
2023-04-05T01:10:08.430Z,78.22
2023-04-05T01:12:39.988Z,80.60
2023-04-05T01:15:09.724Z,107.32
2023-04-05T01:17:40.211Z,106.82
2023-04-05T01:20:12.761Z,104.32
2023-04-05T01:25:37.941Z,119.50
2023-04-05T01:28:44.272Z,141.13
2023-04-05T01:31:28.347Z,129.25
2023-04-05T01:34:30.461Z,137.07
2023-04-05T01:37:04.695Z,134.85
2023-04-05T01:39:36.034Z,111.03
2023-04-05T01:42:07.028Z,101.05
2023-04-05T01:44:36.206Z,85.25
2023-04-05T01:47:05.094Z,71.95
2023-04-05T01:49:34.498Z,88.80
2023-04-05T01:52:03.459Z,81.95
2023-04-05T01:54:32.504Z,80.47
2023-04-05T01:57:01.481Z,82.88
2023-04-05T01:59:30.918Z,81.97
2023-04-05T02:02:01.493Z,79.38
2023-04-05T02:04:30.458Z,84.55
2023-04-05T02:06:59.436Z,75.95
2023-04-05T02:09:28.481Z,75.70
2023-04-05T02:11:57.616Z,65.32
2023-04-05T02:14:27.066Z,75.60
2023-04-05T02:16:57.494Z,79.28
2023-04-05T02:19:26.955Z,71.47
2023-04-05T02:21:55.984Z,84.03
2023-04-05T02:24:25.139Z,91.07
2023-04-05T02:26:54.038Z,72.13
2023-04-05T02:29:23.002Z,86.07
2023-04-05T02:31:51.935Z,65.00
2023-04-05T02:34:22.725Z,69.40
2023-04-05T02:36:55.085Z,67.35
2023-04-05T02:39:24.215Z,67.93
2023-04-05T02:41:53.060Z,55.97
2023-04-05T02:44:22.004Z,65.85
2023-04-05T02:46:54.834Z,59.38
2023-04-05T02:49:29.864Z,68.45
2023-04-05T02:52:01.906Z,52.85
2023-04-05T02:54:31.714Z,54.20
2023-04-05T02:57:04.357Z,63.08
2023-04-05T02:59:43.685Z,60.00
2023-04-05T03:02:14.576Z,62.55
2023-04-05T03:04:45.748Z,54.13
2023-04-05T03:07:19.586Z,58.20
2023-04-05T03:09:49.953Z,60.10
2023-04-05T03:12:19.944Z,56.17
2023-04-05T03:14:49.066Z,64.90
2023-04-05T03:17:22.240Z,59.25
2023-04-05T03:20:01.747Z,60.25
2023-04-05T03:22:31.170Z,56.65
2023-04-05T03:25:00.298Z,60.08
2023-04-05T03:27:30.092Z,71.00
2023-04-05T03:30:07.152Z,71.60
2023-04-05T03:32:40.837Z,113.47
2023-04-05T03:35:20.160Z,116.75
2023-04-05T03:37:49.538Z,90.53
2023-04-05T03:40:19.260Z,104.85
2023-04-05T03:42:49.816Z,117.95
2023-04-05T03:45:23.336Z,143.50
2023-04-05T03:47:55.984Z,115.25
2023-04-05T03:50:25.523Z,135.80
2023-04-05T03:52:54.737Z,122.60
2023-04-05T03:55:25.190Z,100.85
2023-04-05T03:57:55.124Z,108.03
2023-04-05T04:00:29.429Z,77.85
2023-04-05T04:03:11.697Z,81.65
2023-04-05T04:05:44.711Z,68.78
2023-04-05T04:08:14.498Z,60.60
2023-04-05T04:10:43.346Z,54.90
2023-04-05T04:13:25.904Z,65.20
2023-04-05T04:16:05.065Z,92.15
2023-04-05T04:18:55.330Z,58.70
2023-04-05T04:21:40.428Z,58.13
2023-04-05T04:24:21.602Z,42.25
2023-04-05T04:26:50.709Z,53.13
2023-04-05T04:29:47.595Z,51.58
2023-04-05T04:32:54.173Z,69.55
2023-04-05T04:35:41.817Z,58.35
2023-04-05T04:38:35.583Z,58.70
2023-04-05T04:41:21.031Z,60.53
2023-04-05T04:44:07.940Z,46.70
2023-04-05T04:47:04.134Z,60.72
2023-04-05T04:49:47.718Z,68.90
2023-04-05T04:52:16.895Z,56.63
2023-04-05T04:54:48.144Z,66.15
2023-04-05T04:57:17.278Z,52.08
2023-04-05T04:59:46.117Z,48.47
2023-04-05T05:02:15.071Z,48.95
2023-04-05T05:04:44.628Z,43.88
2023-04-05T05:07:13.757Z,46.90
2023-04-05T05:09:42.535Z,36.38
2023-04-05T05:12:11.615Z,37.75
2023-04-05T05:14:40.402Z,33.72
2023-04-05T05:17:09.579Z,36.15
2023-04-05T05:19:38.518Z,31.88
2023-04-05T05:22:07.520Z,40.55
2023-04-05T05:24:36.377Z,46.65
2023-04-05T05:27:05.556Z,42.88
2023-04-05T05:29:34.302Z,35.05
2023-04-05T05:32:03.775Z,27.80
2023-04-05T05:34:32.741Z,30.90
2023-04-05T05:37:01.856Z,49.85
2023-04-05T05:39:30.611Z,56.65
2023-04-05T05:41:59.954Z,49.63
2023-04-05T05:44:29.580Z,54.45
2023-04-05T05:46:59.861Z,40.22
2023-04-05T05:49:28.992Z,58.28
2023-04-05T05:51:58.180Z,56.70
2023-04-05T05:54:27.675Z,41.45
2023-04-05T05:56:56.824Z,53.65
2023-04-05T05:59:26.430Z,30.33
2023-04-05T06:01:56.621Z,31.17
2023-04-05T06:04:25.738Z,37.17
2023-04-05T06:06:55.650Z,39.67
2023-04-05T06:09:24.833Z,29.50
2023-04-05T06:11:56.742Z,27.85
2023-04-05T06:16:54.922Z,23.58
2023-04-05T06:19:24.203Z,30.13
2023-04-05T06:21:58.588Z,29.55
2023-04-05T06:24:28.253Z,33.15
2023-04-05T06:26:57.755Z,28.00
2023-04-05T06:29:27.126Z,39.45
2023-04-05T06:31:56.570Z,26.52
2023-04-05T06:34:25.672Z,32.50
2023-04-05T06:40:54.531Z,19.23
2023-04-05T06:43:23.472Z,22.65
2023-04-05T06:45:52.434Z,30.27
2023-04-05T06:48:22.307Z,18.17
2023-04-05T06:51:06.557Z,24.90
2023-04-05T06:53:36.294Z,30.35
2023-04-05T06:56:05.556Z,25.65
2023-04-05T06:58:34.567Z,26.33
2023-04-05T07:01:05.228Z,29.30
2023-04-05T07:03:34.810Z,28.25
2023-04-05T07:06:03.957Z,24.35
2023-04-05T07:08:34.411Z,32.58
2023-04-05T07:11:03.532Z,17.77
2023-04-05T07:13:34.026Z,24.88
2023-04-05T07:16:04.384Z,18.48
2023-04-05T07:18:33.428Z,23.65
2023-04-05T07:21:02.642Z,23.02
2023-04-05T07:23:32.250Z,27.45
2023-04-05T07:26:06.699Z,24.77
2023-04-05T07:28:37.510Z,25.23
2023-04-05T07:31:08.145Z,36.47
2023-04-05T07:33:37.229Z,29.02
2023-04-05T07:36:06.526Z,17.60
2023-04-05T07:38:35.492Z,24.83
2023-04-05T07:41:06.989Z,36.53
2023-04-05T07:43:35.877Z,24.25
2023-04-05T07:46:08.127Z,15.30
2023-04-05T07:48:37.365Z,32.60
2023-04-05T07:51:08.226Z,23.17
2023-04-05T07:53:38.774Z,32.25
2023-04-05T07:56:12.953Z,16.60
2023-04-05T07:58:42.966Z,19.40
2023-04-05T08:01:14.896Z,15.43
2023-04-05T08:04:02.638Z,24.85
2023-04-05T08:06:32.213Z,25.50
2023-04-05T08:09:01.483Z,16.17
2023-04-05T08:11:30.585Z,18.90
2023-04-05T08:13:59.735Z,17.33
2023-04-05T08:16:29.580Z,24.17
2023-04-05T08:18:58.670Z,24.10
2023-04-05T08:21:28.494Z,18.63
2023-04-05T08:23:57.523Z,23.38
2023-04-05T08:26:26.917Z,40.63
2023-04-05T08:28:56.013Z,26.35
2023-04-05T08:31:25.197Z,21.38
2023-04-05T08:33:56.531Z,22.42
2023-04-05T08:36:25.625Z,28.75
2023-04-05T08:38:54.450Z,19.05
2023-04-05T08:41:25.544Z,44.45
2023-04-05T08:43:59.550Z,27.52
2023-04-05T08:46:30.475Z,28.60
2023-04-05T08:49:00.009Z,24.00
2023-04-05T08:51:29.301Z,42.92
2023-04-05T08:53:58.458Z,62.10
2023-04-05T08:56:31.319Z,26.73
2023-04-05T08:59:12.717Z,20.00
2023-04-05T09:01:49.965Z,27.50
2023-04-05T09:04:32.562Z,28.85
2023-04-05T09:07:04.201Z,44.65
2023-04-05T09:09:37.374Z,32.97
2023-04-05T09:12:08.669Z,45.08
2023-04-05T09:14:39.948Z,28.15
2023-04-05T09:17:09.710Z,33.88
2023-04-05T09:19:38.811Z,23.27
2023-04-05T09:22:10.111Z,26.25
2023-04-05T09:24:47.899Z,68.03
2023-04-05T09:27:22.097Z,31.17
2023-04-05T09:29:59.464Z,34.85
2023-04-05T09:32:32.148Z,32.88
2023-04-05T09:35:05.564Z,30.33
2023-04-05T09:37:38.217Z,37.78
2023-04-05T09:40:08.260Z,29.85
2023-04-05T09:42:47.854Z,35.90
2023-04-05T09:45:19.613Z,20.02
2023-04-05T09:47:58.501Z,29.20
2023-04-05T09:50:28.200Z,26.88
2023-04-05T09:53:16.790Z,31.63
2023-04-05T09:55:47.915Z,18.17
2023-04-05T09:58:24.219Z,34.65
2023-04-05T10:01:09.743Z,37.03
2023-04-05T10:03:51.777Z,31.23
2023-04-05T10:10:28.406Z,29.42
2023-04-05T10:12:59.146Z,25.15
2023-04-05T10:16:32.974Z,24.15
2023-04-05T10:19:04.032Z,31.42
2023-04-05T10:21:43.225Z,26.45
2023-04-05T10:24:15.083Z,34.78
2023-04-05T10:27:00.760Z,39.60
2023-04-05T10:29:48.496Z,37.65
2023-04-05T10:32:32.689Z,27.83
2023-04-05T10:35:24.245Z,19.67
2023-04-05T10:38:01.385Z,31.08
2023-04-05T10:40:34.268Z,42.13
2023-04-05T10:43:05.620Z,30.58
2023-04-05T10:45:36.465Z,29.97
2023-04-05T10:48:16.736Z,56.30
2023-04-05T10:50:48.567Z,28.38
2023-04-05T10:53:18.492Z,33.05
2023-04-05T10:55:48.073Z,22.00
2023-04-05T10:58:17.808Z,39.13
2023-04-05T11:00:49.663Z,22.33
2023-04-05T11:03:44.005Z,34.38
2023-04-05T11:06:31.577Z,36.58
2023-04-05T11:09:22.437Z,43.15
2023-04-05T11:11:53.557Z,28.35
2023-04-05T11:14:27.148Z,27.35
2023-04-05T11:16:59.170Z,37.88
2023-04-05T11:19:48.304Z,31.77
2023-04-05T11:22:28.187Z,37.72
2023-04-05T11:25:05.445Z,41.47
2023-04-05T11:27:38.352Z,48.95
2023-04-05T11:30:08.166Z,56.78
2023-04-05T11:32:44.639Z,42.25
2023-04-05T11:35:26.646Z,35.70
2023-04-05T11:38:09.979Z,28.38
2023-04-05T11:40:44.447Z,49.08
2023-04-05T11:43:13.949Z,45.20
2023-04-05T11:45:44.321Z,59.78
2023-04-05T11:48:15.492Z,49.33
2023-04-05T11:50:46.415Z,32.38
2023-04-05T11:53:19.626Z,31.92
2023-04-05T11:55:53.702Z,54.58
2023-04-05T11:58:26.872Z,62.88
2023-04-05T12:01:03.491Z,63.80
2023-04-05T12:03:32.984Z,53.35
2023-04-05T12:06:03.798Z,57.83
2023-04-05T12:08:51.502Z,56.72
2023-04-05T12:11:30.482Z,59.67
2023-04-05T12:14:03.367Z,63.00
2023-04-05T12:16:32.326Z,49.47
2023-04-05T12:19:02.180Z,120.43
2023-04-05T12:21:31.515Z,67.15
2023-04-05T12:24:00.444Z,41.28
2023-04-05T12:26:35.025Z,67.55
2023-04-05T12:29:06.126Z,67.97
2023-04-05T12:31:46.404Z,72.32
2023-04-05T12:34:16.524Z,76.22
2023-04-05T12:36:49.774Z,72.80
2023-04-05T12:39:19.043Z,45.65
2023-04-05T12:41:59.811Z,65.60
2023-04-05T12:44:32.643Z,71.50
2023-04-05T12:47:06.289Z,86.50
2023-04-05T12:49:41.467Z,57.42
2023-04-05T12:52:10.495Z,60.42
2023-04-05T12:54:40.360Z,50.35
2023-04-05T12:57:13.169Z,58.08
2023-04-05T12:59:42.096Z,69.22
2023-04-05T13:02:10.915Z,68.05
2023-04-05T13:04:39.931Z,65.78
2023-04-05T13:07:08.674Z,32.25
2023-04-05T13:09:37.964Z,44.80
2023-04-05T13:12:07.519Z,72.22
2023-04-05T13:14:36.507Z,48.50
2023-04-05T13:17:05.403Z,73.65
2023-04-05T13:19:34.411Z,61.35
2023-04-05T13:22:03.270Z,51.58
2023-04-05T13:24:32.345Z,56.63
2023-04-05T13:27:01.231Z,50.10
2023-04-05T13:29:30.243Z,45.92
2023-04-05T13:31:59.021Z,41.15
2023-04-05T13:34:28.313Z,49.38
2023-04-05T13:36:57.054Z,33.47
2023-04-05T13:39:26.095Z,36.30
2023-04-05T13:41:55.025Z,95.45
2023-04-05T13:44:24.208Z,209.38
2023-04-05T13:46:52.896Z,129.40
2023-04-05T13:49:22.514Z,178.82
2023-04-05T13:51:51.406Z,144.77
2023-04-05T13:54:20.382Z,137.02
2023-04-05T13:56:49.367Z,59.90
2023-04-05T13:59:20.343Z,53.00
2023-04-05T14:01:52.357Z,37.55
2023-04-05T14:04:21.781Z,33.25
2023-04-05T14:06:50.539Z,44.25
2023-04-05T14:09:19.610Z,31.15
2023-04-05T14:11:49.462Z,31.30
2023-04-05T14:14:18.537Z,19.23
2023-04-05T14:16:47.818Z,28.23
2023-04-05T14:19:17.345Z,24.75
2023-04-05T14:21:47.295Z,18.20
2023-04-05T14:24:16.358Z,24.40
2023-04-05T14:26:46.956Z,22.67
2023-04-05T14:29:20.106Z,20.10
2023-04-05T14:31:49.552Z,11.43
2023-04-05T14:34:18.452Z,9.13
2023-04-05T14:36:47.581Z,15.95
2023-04-05T14:39:16.466Z,14.50
2023-04-05T14:41:50.942Z,15.05
2023-04-05T14:44:20.054Z,13.73
2023-04-05T14:46:50.834Z,7.20
2023-04-05T14:49:19.958Z,8.60
2023-04-05T14:51:48.817Z,9.27
2023-04-05T14:54:17.998Z,11.73
2023-04-05T14:56:46.890Z,9.75
2023-04-05T14:59:15.921Z,10.57
2023-04-05T15:01:46.450Z,4.88
2023-04-05T15:04:15.687Z,13.73
2023-04-05T15:06:44.529Z,1.98
2023-04-05T15:09:13.502Z,2.72
2023-04-05T15:11:42.519Z,8.30
2023-04-05T15:14:18.224Z,5.32
2023-04-05T15:16:57.956Z,2.38
2023-04-05T15:19:26.982Z,3.00
2023-04-05T15:21:55.969Z,6.20
2023-04-05T15:24:26.530Z,3.20
2023-04-05T15:27:04.081Z,3.38
2023-04-05T15:30:04.130Z,1.35
2023-04-05T15:32:34.839Z,6.45
2023-04-05T15:35:04.864Z,3.20
2023-04-05T15:37:34.194Z,4.45
2023-04-05T15:40:03.863Z,4.50
2023-04-05T15:42:34.767Z,2.33
2023-04-05T15:45:03.829Z,2.13
2023-04-05T15:47:32.753Z,6.10
2023-04-05T15:50:01.983Z,2.83
2023-04-05T15:52:30.882Z,2.92
2023-04-05T15:54:59.819Z,2.53
2023-04-05T15:57:28.808Z,3.22
2023-04-05T15:59:57.876Z,6.00
2023-04-05T16:02:26.892Z,5.03
2023-04-05T16:04:56.072Z,6.82
2023-04-05T16:07:24.931Z,3.58
2023-04-05T16:09:53.951Z,3.92
2023-04-05T16:12:22.706Z,4.10
2023-04-05T16:14:51.656Z,3.30
2023-04-05T16:17:20.495Z,3.30
2023-04-05T16:19:49.619Z,3.75
2023-04-05T16:22:18.430Z,9.95
2023-04-05T16:24:47.390Z,5.70
2023-04-05T16:27:16.851Z,2.00
2023-04-05T16:29:46.213Z,5.82
2023-04-05T16:32:15.146Z,8.63
2023-04-05T16:34:44.296Z,3.28
2023-04-05T16:37:13.202Z,1.20
2023-04-05T16:39:42.297Z,4.88
2023-04-05T16:42:11.593Z,3.88
2023-04-05T16:44:40.646Z,5.22
2023-04-05T16:47:09.435Z,9.13
2023-04-05T16:49:38.578Z,8.45
2023-04-05T16:52:07.445Z,4.82
2023-04-05T16:54:36.463Z,11.60
2023-04-05T16:57:05.430Z,9.15
2023-04-05T16:59:34.432Z,13.98
2023-04-05T17:02:03.329Z,19.25
2023-04-05T17:04:32.494Z,16.92
2023-04-05T17:07:01.477Z,13.10
2023-04-05T17:09:30.616Z,12.70
2023-04-05T17:11:59.449Z,14.50
2023-04-05T17:14:29.079Z,11.00
2023-04-05T17:16:58.062Z,13.00
2023-04-05T17:19:27.654Z,10.35
2023-04-05T17:21:56.733Z,16.77
2023-04-05T17:24:28.335Z,16.13
2023-04-05T17:26:57.315Z,10.65
2023-04-05T17:29:26.217Z,16.45
2023-04-05T17:31:55.250Z,10.50
2023-04-05T17:34:24.489Z,10.95
2023-04-05T17:36:54.052Z,14.90
2023-04-05T17:39:22.990Z,9.35
2023-04-05T17:41:52.357Z,9.52
2023-04-05T17:44:21.164Z,14.25
2023-04-05T17:47:01.198Z,16.40
2023-04-05T17:49:38.430Z,23.67
2023-04-05T17:52:11.323Z,20.20
2023-04-05T17:54:40.852Z,18.50
2023-04-05T17:57:16.104Z,33.00
2023-04-05T17:59:45.715Z,19.30
2023-04-05T18:02:14.607Z,16.42
2023-04-05T18:04:43.865Z,23.75
2023-04-05T18:07:13.544Z,28.92
2023-04-05T18:09:43.290Z,24.50
2023-04-05T18:12:12.228Z,37.90
2023-04-05T18:14:41.233Z,27.73
2023-04-05T18:17:09.995Z,23.90
2023-04-05T18:19:39.222Z,22.50
2023-04-05T18:22:08.130Z,13.00
2023-04-05T18:24:37.074Z,36.53
2023-04-05T18:27:05.971Z,14.43
2023-04-05T18:29:38.953Z,27.48
2023-04-05T18:32:08.991Z,58.20
2023-04-05T18:34:38.219Z,57.08
2023-04-05T18:37:07.075Z,47.33
2023-04-05T18:39:36.431Z,44.75
2023-04-05T18:42:05.536Z,51.13
2023-04-05T18:44:34.626Z,66.47
2023-04-05T18:47:05.794Z,42.05
2023-04-05T18:49:35.064Z,36.65
2023-04-05T18:52:03.997Z,57.78
2023-04-05T18:54:33.064Z,66.30
2023-04-05T18:57:01.919Z,81.45
2023-04-05T18:59:30.961Z,74.13
2023-04-05T19:01:59.948Z,53.25
2023-04-05T19:04:29.183Z,54.17
2023-04-05T19:06:58.878Z,71.20
2023-04-05T19:09:28.493Z,77.15
2023-04-05T19:11:57.869Z,72.88
2023-04-05T19:14:26.883Z,82.85
2023-04-05T19:16:56.004Z,61.88
2023-04-05T19:19:25.029Z,151.43
2023-04-05T19:21:53.906Z,81.88
2023-04-05T19:24:23.058Z,91.53
2023-04-05T19:26:52.134Z,53.22
2023-04-05T19:29:21.448Z,58.25
2023-04-05T19:31:51.593Z,52.28
2023-04-05T19:34:20.696Z,85.00
2023-04-05T19:36:49.461Z,60.83
2023-04-05T19:39:18.504Z,55.63
2023-04-05T19:41:47.226Z,32.20
2023-04-05T19:44:47.529Z,24.25
2023-04-05T19:47:18.806Z,53.35
2023-04-05T19:49:49.103Z,27.60
2023-04-05T19:52:38.293Z,35.60
2023-04-05T19:55:28.274Z,26.83
2023-04-05T19:57:58.536Z,19.75
2023-04-05T20:00:53.758Z,20.52
2023-04-05T20:03:35.269Z,19.95
2023-04-05T20:06:10.456Z,37.45
2023-04-05T20:08:44.835Z,52.13
2023-04-05T20:11:19.471Z,35.35
2023-04-05T20:13:55.707Z,31.50
2023-04-05T20:16:35.863Z,28.10
2023-04-05T20:19:09.694Z,28.83
2023-04-05T20:21:40.862Z,48.80
2023-04-05T20:24:16.320Z,47.05
2023-04-05T20:26:48.649Z,28.23
2023-04-05T20:29:23.104Z,39.03
2023-04-05T20:31:54.728Z,26.95
2023-04-05T20:34:45.196Z,29.85
2023-04-05T20:37:15.492Z,24.77
2023-04-05T20:39:46.941Z,33.45
2023-04-05T20:42:17.671Z,31.58
2023-04-05T20:44:49.612Z,41.70
2023-04-05T20:47:21.215Z,40.10
2023-04-05T20:49:51.901Z,30.33
2023-04-05T20:52:23.196Z,37.15
2023-04-05T20:54:53.738Z,40.80
2023-04-05T20:57:24.969Z,33.15
2023-04-05T20:59:55.230Z,29.85
2023-04-05T21:02:26.334Z,25.70
2023-04-05T21:04:56.760Z,41.42
2023-04-05T21:07:28.527Z,37.10
2023-04-05T21:09:59.166Z,36.35
2023-04-05T21:12:30.348Z,44.05
2023-04-05T21:15:01.803Z,30.70
2023-04-05T21:17:32.561Z,38.58
2023-04-05T21:20:03.745Z,32.22
2023-04-05T21:22:35.465Z,32.63
2023-04-05T21:25:09.613Z,35.58
2023-04-05T21:27:40.847Z,37.17
2023-04-05T21:30:12.372Z,92.13
2023-04-05T21:32:43.599Z,72.50
2023-04-05T21:35:14.683Z,42.30
2023-04-05T21:37:45.798Z,38.33
2023-04-05T21:40:17.442Z,34.88
2023-04-05T21:42:48.001Z,28.25
2023-04-05T21:45:18.583Z,32.60
2023-04-05T21:47:49.826Z,36.60
2023-04-05T21:50:20.904Z,29.65
2023-04-05T21:52:51.917Z,38.15
2023-04-05T21:55:23.142Z,31.25
2023-04-05T21:57:53.384Z,34.45
2023-04-05T22:00:23.681Z,37.13
2023-04-05T22:02:53.935Z,121.40
2023-04-05T22:05:36.484Z,137.30
2023-04-05T22:08:09.952Z,148.35
2023-04-05T22:10:42.151Z,241.52
2023-04-05T22:13:13.221Z,154.40
2023-04-05T22:15:45.805Z,144.15
2023-04-05T22:18:16.895Z,146.50
2023-04-05T22:20:48.010Z,154.85
2023-04-05T22:23:19.036Z,152.40
2023-04-05T22:25:48.142Z,151.25
2023-04-05T22:28:17.149Z,145.90
2023-04-05T22:30:46.393Z,109.18
2023-04-05T22:33:15.336Z,97.50
2023-04-05T22:35:44.409Z,100.80
2023-04-05T22:38:13.261Z,103.10
2023-04-05T22:40:42.335Z,89.78
2023-04-05T22:43:11.206Z,81.25
2023-04-05T22:45:40.607Z,84.05
2023-04-05T22:48:09.565Z,77.03
2023-04-05T22:50:38.593Z,74.68
2023-04-05T22:53:07.738Z,75.68
2023-04-05T22:55:38.931Z,73.18
2023-04-05T22:58:08.824Z,77.15
2023-04-05T23:00:39.074Z,68.15
2023-04-05T23:03:08.215Z,70.03
2023-04-05T23:05:37.851Z,74.60
2023-04-05T23:08:06.949Z,64.60
2023-04-05T23:10:35.933Z,80.05
2023-04-05T23:13:05.163Z,82.50
2023-04-05T23:15:34.066Z,93.22
2023-04-05T23:18:03.386Z,85.07
2023-04-05T23:20:32.255Z,96.15
2023-04-05T23:23:02.549Z,85.70
2023-04-05T23:25:31.617Z,91.75
2023-04-05T23:28:00.741Z,138.45
2023-04-05T23:30:29.560Z,148.32
2023-04-05T23:32:58.634Z,167.52
2023-04-05T23:35:28.109Z,102.40
2023-04-05T23:37:57.194Z,73.82
2023-04-05T23:40:26.211Z,59.60
2023-04-05T23:42:55.292Z,64.95
2023-04-05T23:45:24.173Z,67.55
2023-04-05T23:47:53.467Z,92.35
2023-04-05T23:50:22.752Z,62.33
2023-04-05T23:52:52.258Z,67.30
2023-04-05T23:55:22.575Z,67.95
2023-04-05T23:57:52.860Z,70.32
